createdAt,value
2023-05-06T00:01:23.079Z,97463.84
2023-05-06T00:03:51.575Z,97462.90
2023-05-06T00:06:19.759Z,97459.30
2023-05-06T00:08:47.746Z,97453.20
2023-05-06T00:11:15.725Z,97455.19
2023-05-06T00:13:43.487Z,97457.96
2023-05-06T00:16:11.383Z,97457.05
2023-05-06T00:18:39.368Z,97459.11
2023-05-06T00:21:07.259Z,97458.14
2023-05-06T00:23:35.222Z,97458.84
2023-05-06T00:26:03.216Z,97458.23
2023-05-06T00:28:31.032Z,97458.52
2023-05-06T00:30:58.918Z,97461.60
2023-05-06T00:33:27.014Z,97459.08
2023-05-06T00:35:54.901Z,97458.52
2023-05-06T00:38:23.450Z,97458.34
2023-05-06T00:40:51.320Z,97459.98
2023-05-06T00:43:19.197Z,97463.51
2023-05-06T00:45:48.542Z,97465.52
2023-05-06T00:48:16.818Z,97469.57
2023-05-06T00:50:45.918Z,97475.10
2023-05-06T00:53:14.152Z,97476.42
2023-05-06T00:55:42.223Z,97474.66
2023-05-06T00:58:10.253Z,97478.73
2023-05-06T01:00:38.692Z,97476.44
2023-05-06T01:03:06.604Z,97477.20
2023-05-06T01:05:47.717Z,97476.77
2023-05-06T01:08:51.894Z,97479.48
2023-05-06T01:11:34.111Z,97478.45
2023-05-06T01:14:36.352Z,97477.98
2023-05-06T01:17:08.130Z,97480.53
2023-05-06T01:19:43.205Z,97478.98
2023-05-06T01:22:13.128Z,97479.48
2023-05-06T01:24:43.181Z,97479.16
2023-05-06T01:27:13.073Z,97481.27
2023-05-06T01:29:43.606Z,97479.53
2023-05-06T01:32:50.954Z,97482.78
2023-05-06T01:35:36.422Z,97484.48
2023-05-06T01:38:24.280Z,97492.15
2023-05-06T01:40:55.691Z,97487.61
2023-05-06T01:43:28.341Z,97486.86
2023-05-06T01:45:57.272Z,97484.00
2023-05-06T01:48:28.236Z,97485.73
2023-05-06T01:50:56.800Z,97487.15
2023-05-06T01:53:24.661Z,97486.58
2023-05-06T01:55:52.694Z,97485.31
2023-05-06T01:58:20.604Z,97488.44
2023-05-06T02:00:48.449Z,97488.74
2023-05-06T02:03:16.578Z,97494.22
2023-05-06T02:05:44.541Z,97491.42
2023-05-06T02:08:12.390Z,97489.45
2023-05-06T02:10:40.746Z,97488.29
2023-05-06T02:13:10.891Z,97491.42
2023-05-06T02:15:39.041Z,97493.99
2023-05-06T02:18:07.086Z,97495.55
2023-05-06T02:20:35.287Z,97493.20
2023-05-06T02:23:03.018Z,97493.20
2023-05-06T02:25:31.517Z,97490.08
2023-05-06T02:27:59.400Z,97491.28
2023-05-06T02:30:27.309Z,97489.60
2023-05-06T02:32:55.221Z,97489.02
2023-05-06T02:35:23.834Z,97489.02
2023-05-06T02:37:51.690Z,97487.90
2023-05-06T02:40:19.461Z,97489.38
2023-05-06T02:42:47.458Z,97488.02
2023-05-06T02:45:15.363Z,97486.65
2023-05-06T02:47:43.249Z,97488.61
2023-05-06T02:50:11.377Z,97492.44
2023-05-06T02:52:39.399Z,97494.17
2023-05-06T02:55:07.599Z,97494.59
2023-05-06T02:57:35.677Z,97495.20
2023-05-06T03:00:06.298Z,97495.55
2023-05-06T03:02:34.302Z,97491.80
2023-05-06T03:05:04.512Z,97488.30
2023-05-06T03:07:32.458Z,97491.77
2023-05-06T03:10:00.497Z,97489.75
2023-05-06T03:12:28.387Z,97487.67
2023-05-06T03:14:56.290Z,97490.20
2023-05-06T03:17:24.150Z,97488.66
2023-05-06T03:19:52.207Z,97488.60
2023-05-06T03:22:20.087Z,97492.60
2023-05-06T03:24:47.977Z,97489.19
2023-05-06T03:27:15.913Z,97487.70
2023-05-06T03:29:43.674Z,97489.92
2023-05-06T03:32:11.654Z,97490.15
2023-05-06T03:34:39.527Z,97495.95
2023-05-06T03:37:07.427Z,97495.07
2023-05-06T03:39:35.229Z,97494.38
2023-05-06T03:42:03.244Z,97495.77
2023-05-06T03:44:31.173Z,97495.91
2023-05-06T03:46:58.897Z,97494.75
2023-05-06T03:49:26.749Z,97498.23
2023-05-06T03:51:54.597Z,97500.36
2023-05-06T03:54:23.015Z,97502.69
2023-05-06T03:56:51.000Z,97501.99
2023-05-06T03:59:18.677Z,97507.30
2023-05-06T04:01:46.863Z,97509.36
2023-05-06T04:04:14.872Z,97509.23
2023-05-06T04:06:43.345Z,97512.40
2023-05-06T04:09:11.156Z,97513.35
2023-05-06T04:11:39.457Z,97511.63
2023-05-06T04:14:07.856Z,97513.73
2023-05-06T04:16:35.982Z,97512.73
2023-05-06T04:19:06.495Z,97518.68
2023-05-06T04:21:34.677Z,97523.73
2023-05-06T04:24:02.886Z,97526.46
2023-05-06T04:26:31.484Z,97530.14
2023-05-06T04:28:59.335Z,97531.52
2023-05-06T04:31:28.439Z,97536.10
2023-05-06T04:33:56.290Z,97541.30
2023-05-06T04:36:24.105Z,97539.61
2023-05-06T04:38:53.278Z,97539.56
2023-05-06T04:41:22.241Z,97540.68
2023-05-06T04:43:50.061Z,97542.42
2023-05-06T04:46:18.000Z,97545.39
2023-05-06T04:48:45.924Z,97543.85
2023-05-06T04:51:13.848Z,97545.73
2023-05-06T04:53:41.718Z,97546.80
2023-05-06T04:56:09.510Z,97544.09
2023-05-06T04:58:37.307Z,97541.93
2023-05-06T05:01:08.974Z,97541.56
2023-05-06T05:03:37.015Z,97544.79
2023-05-06T05:06:05.274Z,97544.98
2023-05-06T05:08:33.252Z,97542.98
2023-05-06T05:11:01.096Z,97540.20
2023-05-06T05:13:29.822Z,97541.96
2023-05-06T05:15:57.738Z,97544.58
2023-05-06T05:18:25.687Z,97541.05
2023-05-06T05:20:53.591Z,97540.38
2023-05-06T05:23:21.383Z,97538.71
2023-05-06T05:25:49.270Z,97536.50
2023-05-06T05:28:17.184Z,97540.88
2023-05-06T05:30:57.395Z,97541.27
2023-05-06T05:33:27.691Z,97536.92
2023-05-06T05:35:55.761Z,97538.30
2023-05-06T05:38:23.606Z,97538.27
2023-05-06T05:40:51.723Z,97539.55
2023-05-06T05:43:21.559Z,97538.14
2023-05-06T05:45:49.342Z,97537.55
2023-05-06T05:48:17.278Z,97541.10
2023-05-06T05:50:45.982Z,97542.30
2023-05-06T05:53:13.794Z,97531.30
2023-05-06T05:55:41.620Z,97530.99
2023-05-06T05:58:12.908Z,97528.90
2023-05-06T06:00:40.904Z,97525.77
2023-05-06T06:03:09.340Z,97526.30
2023-05-06T06:05:37.667Z,97529.98
2023-05-06T06:08:05.631Z,97531.89
2023-05-06T06:10:33.494Z,97525.48
2023-05-06T06:13:01.412Z,97525.61
2023-05-06T06:15:29.521Z,97523.96
2023-05-06T06:17:57.409Z,97527.35
2023-05-06T06:20:25.426Z,97526.70
2023-05-06T06:22:53.394Z,97528.50
2023-05-06T06:25:21.694Z,97530.50
2023-05-06T06:27:49.498Z,97531.84
2023-05-06T06:30:17.485Z,97534.58
2023-05-06T06:32:51.372Z,97533.91
2023-05-06T06:35:23.928Z,97533.36
2023-05-06T06:37:51.779Z,97535.65
2023-05-06T06:40:20.214Z,97539.61
2023-05-06T06:42:48.318Z,97540.98
2023-05-06T06:45:16.464Z,97544.28
2023-05-06T06:47:44.397Z,97537.50
2023-05-06T06:50:12.474Z,97535.25
2023-05-06T06:52:40.587Z,97530.88
2023-05-06T06:55:09.496Z,97530.40
2023-05-06T06:57:39.262Z,97530.31
2023-05-06T07:00:07.735Z,97531.77
2023-05-06T07:02:35.696Z,97530.40
2023-05-06T07:05:04.383Z,97530.88
2023-05-06T07:07:32.612Z,97528.75
2023-05-06T07:10:00.364Z,97527.98
2023-05-06T07:12:28.686Z,97528.78
2023-05-06T07:14:56.530Z,97531.44
2023-05-06T07:17:24.380Z,97529.75
2023-05-06T07:19:52.208Z,97528.53
2023-05-06T07:22:20.360Z,97529.29
2023-05-06T07:24:48.158Z,97528.20
2023-05-06T07:27:16.154Z,97526.55
2023-05-06T07:29:44.085Z,97521.70
2023-05-06T07:32:12.181Z,97522.37
2023-05-06T07:34:40.074Z,97519.84
2023-05-06T07:37:08.368Z,97517.34
2023-05-06T07:39:36.311Z,97519.02
2023-05-06T07:42:04.090Z,97514.98
2023-05-06T07:44:31.928Z,97509.70
2023-05-06T07:46:59.950Z,97505.20
2023-05-06T07:49:30.603Z,97499.75
2023-05-06T07:51:58.855Z,97495.80
2023-05-06T07:54:26.752Z,97495.31
2023-05-06T07:56:54.566Z,97498.99
2023-05-06T07:59:22.501Z,97496.73
2023-05-06T08:01:50.578Z,97500.60
2023-05-06T08:04:18.473Z,97497.55
2023-05-06T08:06:46.816Z,97497.47
2023-05-06T08:09:22.377Z,97498.18
2023-05-06T08:11:51.274Z,97500.04
2023-05-06T08:14:19.128Z,97501.12
2023-05-06T08:16:47.095Z,97506.01
2023-05-06T08:19:15.076Z,97503.31
2023-05-06T08:21:42.935Z,97502.33
2023-05-06T08:24:11.222Z,97504.71
2023-05-06T08:26:39.439Z,97506.30
2023-05-06T08:29:08.149Z,97504.55
2023-05-06T08:31:36.085Z,97503.70
2023-05-06T08:34:04.062Z,97503.45
2023-05-06T08:36:32.308Z,97508.73
2023-05-06T08:39:00.718Z,97505.45
2023-05-06T08:41:30.645Z,97499.55
2023-05-06T08:44:01.197Z,97502.12
2023-05-06T08:46:31.119Z,97502.30
2023-05-06T08:48:59.906Z,97496.70
2023-05-06T08:51:30.250Z,97497.63
2023-05-06T08:54:01.430Z,97496.12
2023-05-06T08:56:32.921Z,97491.15
2023-05-06T08:59:01.559Z,97488.96
2023-05-06T09:01:29.629Z,97490.70
2023-05-06T09:03:59.468Z,97491.27
2023-05-06T09:06:27.467Z,97486.76
2023-05-06T09:08:55.731Z,97481.48
2023-05-06T09:11:26.751Z,97482.09
2023-05-06T09:14:14.582Z,97480.68
2023-05-06T09:16:48.106Z,97476.95
2023-05-06T09:19:16.487Z,97476.58
2023-05-06T09:21:46.788Z,97472.63
2023-05-06T09:24:16.779Z,97471.84
2023-05-06T09:26:46.462Z,97471.24
2023-05-06T09:29:14.580Z,97470.48
2023-05-06T09:31:45.338Z,97470.22
2023-05-06T09:34:14.557Z,97468.88
2023-05-06T09:36:42.446Z,97466.16
2023-05-06T09:39:10.457Z,97460.19
2023-05-06T09:41:38.848Z,97462.09
2023-05-06T09:44:06.931Z,97461.55
2023-05-06T09:46:34.991Z,97462.23
2023-05-06T09:49:03.020Z,97456.96
2023-05-06T09:51:31.165Z,97453.74
2023-05-06T09:54:00.850Z,97451.39
2023-05-06T09:56:30.484Z,97455.22
2023-05-06T09:59:01.532Z,97451.09
2023-05-06T10:01:36.515Z,97444.23
2023-05-06T10:04:08.699Z,97445.85
2023-05-06T10:06:39.769Z,97444.05
2023-05-06T10:09:11.084Z,97444.55
2023-05-06T10:11:39.413Z,97449.42
2023-05-06T10:14:08.023Z,97443.77
2023-05-06T10:16:37.194Z,97447.02
2023-05-06T10:19:09.404Z,97434.66
2023-05-06T10:21:44.798Z,97430.46
2023-05-06T10:24:16.581Z,97428.75
2023-05-06T10:26:46.752Z,97430.91
2023-05-06T10:29:15.174Z,97428.98
2023-05-06T10:31:54.522Z,97428.98
2023-05-06T10:34:24.497Z,97426.15
2023-05-06T10:36:57.622Z,97421.20
2023-05-06T10:39:26.646Z,97421.50
2023-05-06T10:41:54.727Z,97425.17
2023-05-06T10:45:04.857Z,97417.20
2023-05-06T10:47:57.876Z,97421.63
2023-05-06T10:50:27.461Z,97417.25
2023-05-06T10:52:57.459Z,97415.80
2023-05-06T10:55:26.793Z,97417.17
2023-05-06T10:58:15.960Z,97415.30
2023-05-06T11:00:55.155Z,97413.73
2023-05-06T11:03:24.281Z,97412.44
2023-05-06T11:05:52.749Z,97417.25
2023-05-06T11:08:26.924Z,97415.27
2023-05-06T11:10:54.988Z,97407.77
2023-05-06T11:13:26.574Z,97409.83
2023-05-06T11:15:56.574Z,97409.73
2023-05-06T11:18:25.243Z,97406.67
2023-05-06T11:21:05.283Z,97404.28
2023-05-06T11:23:42.139Z,97402.96
2023-05-06T11:26:10.747Z,97401.52
2023-05-06T11:28:47.152Z,97398.40
2023-05-06T11:31:15.820Z,97396.44
2023-05-06T11:33:55.275Z,97395.27
2023-05-06T11:36:23.244Z,97396.71
2023-05-06T11:38:56.367Z,97392.73
2023-05-06T11:41:24.675Z,97395.36
2023-05-06T11:43:53.801Z,97391.80
2023-05-06T11:46:23.777Z,97390.20
2023-05-06T11:48:51.787Z,97387.17
2023-05-06T11:51:23.539Z,97386.80
2023-05-06T11:53:53.712Z,97383.45
2023-05-06T11:56:22.085Z,97377.46
2023-05-06T11:58:52.240Z,97375.73
2023-05-06T12:01:22.950Z,97376.58
2023-05-06T12:03:54.874Z,97378.02
2023-05-06T12:06:34.104Z,97374.40
2023-05-06T12:09:07.480Z,97371.70
2023-05-06T12:11:36.634Z,97372.67
2023-05-06T12:14:07.490Z,97371.79
2023-05-06T12:16:36.825Z,97370.22
2023-05-06T12:19:05.867Z,97370.62
2023-05-06T12:21:38.315Z,97370.44
2023-05-06T12:24:07.164Z,97371.28
2023-05-06T12:26:46.674Z,97366.58
2023-05-06T12:29:17.364Z,97359.89
2023-05-06T12:31:47.366Z,97356.57
2023-05-06T12:34:17.853Z,97355.11
2023-05-06T12:36:47.344Z,97356.85
2023-05-06T12:39:15.370Z,97349.38
2023-05-06T12:41:45.436Z,97348.11
2023-05-06T12:44:33.424Z,97346.23
2023-05-06T12:47:09.207Z,97342.13
2023-05-06T12:49:54.768Z,97339.07
2023-05-06T12:52:24.769Z,97336.88
2023-05-06T12:54:53.253Z,97329.98
2023-05-06T12:57:22.020Z,97331.36
2023-05-06T12:59:50.816Z,97330.36
2023-05-06T13:02:18.824Z,97330.54
2023-05-06T13:04:47.199Z,97327.44
2023-05-06T13:07:15.599Z,97326.35
2023-05-06T13:09:44.611Z,97327.82
2023-05-06T13:12:13.270Z,97320.16
2023-05-06T13:14:41.189Z,97318.40
2023-05-06T13:17:09.448Z,97317.96
2023-05-06T13:19:38.103Z,97319.44
2023-05-06T13:22:06.037Z,97316.29
2023-05-06T13:24:33.986Z,97314.20
2023-05-06T13:27:02.180Z,97307.60
2023-05-06T13:29:30.147Z,97307.10
2023-05-06T13:31:58.299Z,97306.83
2023-05-06T13:34:26.477Z,97311.92
2023-05-06T13:36:57.116Z,97308.00
2023-05-06T13:39:25.328Z,97305.09
2023-05-06T13:41:54.234Z,97306.39
2023-05-06T13:44:22.175Z,97303.77
2023-05-06T13:46:50.049Z,97302.98
2023-05-06T13:49:19.616Z,97301.77
2023-05-06T13:51:47.502Z,97301.45
2023-05-06T13:54:15.516Z,97303.20
2023-05-06T13:56:43.695Z,97296.66
2023-05-06T13:59:13.440Z,97299.48
2023-05-06T14:01:42.311Z,97299.85
2023-05-06T14:04:10.411Z,97296.01
2023-05-06T14:06:38.921Z,97295.08
2023-05-06T14:09:07.184Z,97294.98
2023-05-06T14:11:35.001Z,97292.27
2023-05-06T14:14:02.977Z,97294.86
2023-05-06T14:16:31.018Z,97294.28
2023-05-06T14:19:00.051Z,97290.30
2023-05-06T14:21:27.938Z,97287.40
2023-05-06T14:23:56.237Z,97286.73
2023-05-06T14:26:24.037Z,97286.83
2023-05-06T14:28:51.925Z,97283.73
2023-05-06T14:31:19.861Z,97279.67
2023-05-06T14:33:47.728Z,97279.44
2023-05-06T14:36:19.769Z,97278.77
2023-05-06T14:38:47.580Z,97277.66
2023-05-06T14:41:15.487Z,97274.74
2023-05-06T14:43:43.412Z,97277.55
2023-05-06T14:46:11.368Z,97277.48
2023-05-06T14:48:39.287Z,97278.77
2023-05-06T14:51:07.146Z,97278.58
2023-05-06T14:53:35.689Z,97278.12
2023-05-06T14:56:03.764Z,97275.88
2023-05-06T14:58:34.034Z,97278.59
2023-05-06T15:01:01.950Z,97274.96
2023-05-06T15:03:29.985Z,97276.11
2023-05-06T15:05:57.949Z,97276.63
2023-05-06T15:08:26.478Z,97271.08
2023-05-06T15:10:54.932Z,97271.59
2023-05-06T15:13:22.913Z,97267.88
2023-05-06T15:15:50.906Z,97267.97
2023-05-06T15:18:18.669Z,97267.17
2023-05-06T15:20:46.503Z,97265.40
2023-05-06T15:23:14.299Z,97270.55
2023-05-06T15:25:42.530Z,97270.19
2023-05-06T15:28:10.746Z,97271.45
2023-05-06T15:30:38.913Z,97267.36
2023-05-06T15:33:06.822Z,97268.34
2023-05-06T15:35:34.692Z,97269.65
2023-05-06T15:38:04.243Z,97268.86
2023-05-06T15:40:32.107Z,97271.07
2023-05-06T15:42:59.961Z,97267.66
2023-05-06T15:45:27.779Z,97268.68
2023-05-06T15:47:56.234Z,97267.98
2023-05-06T15:50:32.773Z,97267.89
2023-05-06T15:53:02.255Z,97266.77
2023-05-06T15:55:35.089Z,97270.50
2023-05-06T15:58:09.261Z,97272.87
2023-05-06T16:00:37.260Z,97267.80
2023-05-06T16:03:05.964Z,97265.41
2023-05-06T16:05:34.849Z,97261.59
2023-05-06T16:08:02.664Z,97261.14
2023-05-06T16:10:30.597Z,97260.48
2023-05-06T16:12:58.503Z,97257.63
2023-05-06T16:15:26.552Z,97257.85
2023-05-06T16:17:54.471Z,97256.93
2023-05-06T16:20:22.361Z,97255.09
2023-05-06T16:22:50.974Z,97252.00
2023-05-06T16:25:19.117Z,97253.17
2023-05-06T16:27:47.010Z,97252.52
2023-05-06T16:30:15.057Z,97254.95
2023-05-06T16:32:43.126Z,97255.65
2023-05-06T16:35:11.415Z,97254.67
2023-05-06T16:37:39.496Z,97258.13
2023-05-06T16:40:08.624Z,97261.89
2023-05-06T16:42:36.795Z,97256.29
2023-05-06T16:45:06.159Z,97254.30
2023-05-06T16:47:34.047Z,97254.19
2023-05-06T16:50:02.288Z,97253.49
2023-05-06T16:52:30.837Z,97251.50
2023-05-06T16:54:58.936Z,97251.81
2023-05-06T16:57:26.765Z,97255.37
2023-05-06T16:59:54.800Z,97250.52
2023-05-06T17:02:22.716Z,97253.57
2023-05-06T17:04:50.620Z,97251.40
2023-05-06T17:07:18.732Z,97249.98
2023-05-06T17:09:46.754Z,97247.40
2023-05-06T17:12:14.623Z,97252.23
2023-05-06T17:14:43.649Z,97255.57
2023-05-06T17:17:11.506Z,97257.11
2023-05-06T17:19:39.372Z,97258.27
2023-05-06T17:22:08.197Z,97261.10
2023-05-06T17:24:35.984Z,97260.66
2023-05-06T17:27:03.892Z,97265.55
2023-05-06T17:29:31.956Z,97266.22
2023-05-06T17:31:59.950Z,97267.36
2023-05-06T17:34:27.843Z,97274.07
2023-05-06T17:36:56.082Z,97274.80
2023-05-06T17:39:23.965Z,97278.52
2023-05-06T17:41:51.940Z,97280.41
2023-05-06T17:44:19.831Z,97284.14
2023-05-06T17:46:47.762Z,97277.19
2023-05-06T17:49:15.824Z,97283.91
2023-05-06T17:51:45.637Z,97286.23
2023-05-06T17:54:13.470Z,97295.11
2023-05-06T17:56:41.497Z,97299.45
2023-05-06T17:59:09.402Z,97303.39
2023-05-06T18:01:37.367Z,97308.34
2023-05-06T18:04:05.521Z,97311.00
2023-05-06T18:06:33.677Z,97323.48
2023-05-06T18:09:01.578Z,97330.42
2023-05-06T18:11:29.781Z,97334.39
2023-05-06T18:13:57.756Z,97335.56
2023-05-06T18:16:25.759Z,97337.55
2023-05-06T18:18:53.912Z,97335.56
2023-05-06T18:21:22.435Z,97339.77
2023-05-06T18:23:55.655Z,97343.06
2023-05-06T18:26:43.163Z,97343.55
2023-05-06T18:29:11.950Z,97348.80
2023-05-06T18:31:39.887Z,97353.06
2023-05-06T18:34:07.880Z,97355.16
2023-05-06T18:36:36.549Z,97356.52
2023-05-06T18:39:04.888Z,97360.09
2023-05-06T18:41:32.837Z,97357.75
2023-05-06T18:44:03.525Z,97359.27
2023-05-06T18:46:31.841Z,97363.05
2023-05-06T18:49:01.041Z,97359.13
2023-05-06T18:51:29.006Z,97364.40
2023-05-06T18:53:56.937Z,97367.55
2023-05-06T18:56:24.906Z,97372.00
2023-05-06T18:58:52.831Z,97372.83
2023-05-06T19:01:21.171Z,97375.70
2023-05-06T19:03:49.290Z,97383.23
2023-05-06T19:06:17.575Z,97385.89
2023-05-06T19:08:45.399Z,97387.02
2023-05-06T19:11:18.228Z,97384.86
2023-05-06T19:13:46.461Z,97378.71
2023-05-06T19:16:14.845Z,97377.59
2023-05-06T19:18:42.818Z,97379.59
2023-05-06T19:21:12.734Z,97376.52
2023-05-06T19:23:40.981Z,97372.45
2023-05-06T19:26:12.021Z,97374.43
2023-05-06T19:28:40.702Z,97377.84
2023-05-06T19:31:10.425Z,97378.46
2023-05-06T19:33:39.024Z,97376.39
2023-05-06T19:36:07.104Z,97374.86
2023-05-06T19:38:35.117Z,97374.38
2023-05-06T19:41:03.009Z,97375.63
2023-05-06T19:43:30.997Z,97374.38
2023-05-06T19:45:59.069Z,97378.34
2023-05-06T19:48:27.001Z,97380.10
2023-05-06T19:50:54.870Z,97384.20
2023-05-06T19:53:23.910Z,97385.29
2023-05-06T19:55:55.484Z,97385.15
2023-05-06T19:58:23.489Z,97383.07
2023-05-06T20:00:51.471Z,97379.76
2023-05-06T20:03:19.372Z,97378.85
2023-05-06T20:05:47.588Z,97379.64
2023-05-06T20:08:15.433Z,97384.76
2023-05-06T20:10:43.529Z,97388.23
2023-05-06T20:13:12.035Z,97387.29
2023-05-06T20:15:39.950Z,97384.35
2023-05-06T20:18:07.974Z,97381.70
2023-05-06T20:20:36.234Z,97381.50
2023-05-06T20:23:04.478Z,97380.07
2023-05-06T20:25:32.719Z,97381.98
2023-05-06T20:28:00.672Z,97382.60
2023-05-06T20:30:28.526Z,97383.54
2023-05-06T20:32:56.497Z,97385.09
2023-05-06T20:35:24.914Z,97378.81
2023-05-06T20:37:55.766Z,97374.41
2023-05-06T20:40:23.718Z,97370.76
2023-05-06T20:42:52.689Z,97370.85
2023-05-06T20:45:20.852Z,97370.53
2023-05-06T20:47:48.886Z,97374.31
2023-05-06T20:50:17.437Z,97369.76
2023-05-06T20:52:47.539Z,97371.88
2023-05-06T20:55:15.899Z,97367.77
2023-05-06T20:57:44.611Z,97363.44
2023-05-06T21:00:12.958Z,97363.61
2023-05-06T21:02:41.928Z,97365.84
2023-05-06T21:05:11.224Z,97364.81
2023-05-06T21:07:39.360Z,97371.44
2023-05-06T21:10:07.569Z,97375.73
2023-05-06T21:12:35.484Z,97375.64
2023-05-06T21:15:03.589Z,97370.27
2023-05-06T21:17:31.467Z,97366.00
2023-05-06T21:19:59.342Z,97367.00
2023-05-06T21:22:27.190Z,97369.27
2023-05-06T21:24:56.054Z,97368.86
2023-05-06T21:27:23.929Z,97376.14
2023-05-06T21:29:51.973Z,97375.33
2023-05-06T21:32:19.959Z,97375.46
2023-05-06T21:34:47.840Z,97378.02
2023-05-06T21:37:18.109Z,97379.15
2023-05-06T21:39:46.160Z,97384.50
2023-05-06T21:42:13.932Z,97384.91
2023-05-06T21:44:42.153Z,97386.71
2023-05-06T21:47:10.132Z,97386.46
2023-05-06T21:49:37.945Z,97386.25
2023-05-06T21:52:06.517Z,97387.77
2023-05-06T21:54:34.406Z,97381.92
2023-05-06T21:57:02.647Z,97378.12
2023-05-06T21:59:30.457Z,97376.73
2023-05-06T22:01:58.299Z,97372.85
2023-05-06T22:04:26.359Z,97374.38
2023-05-06T22:06:54.286Z,97373.52
2023-05-06T22:09:23.360Z,97373.50
2023-05-06T22:11:51.860Z,97367.36
2023-05-06T22:14:21.879Z,97366.11
2023-05-06T22:16:52.801Z,97368.35
2023-05-06T22:19:21.297Z,97374.23
2023-05-06T22:21:49.350Z,97372.73
2023-05-06T22:24:17.205Z,97377.55
2023-05-06T22:26:45.139Z,97375.64
2023-05-06T22:29:12.998Z,97374.19
2023-05-06T22:31:41.108Z,97373.66
2023-05-06T22:34:09.060Z,97373.90
2023-05-06T22:36:37.031Z,97373.20
2023-05-06T22:39:04.858Z,97372.02
2023-05-06T22:41:32.695Z,97373.70
2023-05-06T22:44:00.658Z,97372.10
2023-05-06T22:46:29.261Z,97365.82
2023-05-06T22:48:57.949Z,97365.62
2023-05-06T22:51:25.915Z,97366.83
2023-05-06T22:53:53.802Z,97370.67
2023-05-06T22:56:21.691Z,97370.66
2023-05-06T22:58:49.496Z,97366.92
2023-05-06T23:01:17.991Z,97366.27
2023-05-06T23:03:45.938Z,97363.97
2023-05-06T23:06:13.819Z,97361.25
2023-05-06T23:08:41.650Z,97356.63
2023-05-06T23:11:09.424Z,97355.16
2023-05-06T23:13:37.296Z,97355.92
2023-05-06T23:16:05.472Z,97352.10
2023-05-06T23:18:33.360Z,97351.17
2023-05-06T23:21:01.272Z,97347.22
2023-05-06T23:23:29.771Z,97344.83
2023-05-06T23:25:57.586Z,97340.02
2023-05-06T23:28:25.596Z,97338.34
2023-05-06T23:30:53.577Z,97335.70
2023-05-06T23:33:21.496Z,97336.80
2023-05-06T23:35:49.458Z,97337.05
2023-05-06T23:38:17.271Z,97330.58
2023-05-06T23:40:45.239Z,97330.13
2023-05-06T23:43:13.042Z,97325.15
2023-05-06T23:45:41.084Z,97328.77
2023-05-06T23:48:08.941Z,97329.45
2023-05-06T23:50:37.223Z,97332.51
2023-05-06T23:53:05.184Z,97329.77
2023-05-06T23:55:33.309Z,97322.84
2023-05-06T23:58:01.149Z,97323.05
